Latest Coastal Weather Observations for Larapuna (Eddystone Point)

IDT60701

Issued at 9:52 pm EDT Monday 26 February 2024 (issued every 10 minutes, with the page automatically refreshed every 10 minutes)

About coastal observations | Map of coastal stations | Coastal observations for TAS | Marine services | Other Formats
Station Details ID: 092045 Name: LARAPUNA (EDDYSTONE POINT) Lat: -40.99 Lon: 148.35 Height: 19.7 m
Data from the previous 72 hours. | See also: Recent months at Larapuna (Eddystone Point)
Date/Time
EDT
Wind Sea
Height
m
Swell Vis
km
Cloud Weather Temp
°C
Press
MSL
hPa
Rain since
9am
mm
Dir  Spd
kts
Gust
kts
Height
m
Period
s
Dir
26/09:30pm ESE 8 11 - - - - - - - 15.4 1021.7 0.0
26/09:00pm ESE 7 10 - - - - - - - 15.4 1021.3 0.0
26/08:30pm SE 9 11 - - - - - - - 15.3 1021.1 0.0
26/08:00pm SE 9 11 - - - - - - - 15.4 1020.7 0.0
26/07:30pm SE 9 13 - - - - - - - 15.9 1020.5 0.0
26/07:00pm SE 9 13 - - - - - - - 16.7 1020.2 0.0
26/06:30pm SE 9 13 - - - - - - - 17.5 1020.0 0.0
26/06:00pm SE 11 15 - - - - - - - 17.9 1019.8 0.0
26/05:30pm SSE 13 17 - - - - - - - 18.2 1019.8 0.0
26/05:00pm SSE 13 17 - - - - - - - 19.0 1019.7 0.0
26/04:30pm SSE 15 19 - - - - - - - 18.8 1019.6 0.0
26/04:00pm SSE 16 19 - - - - - - - 18.8 1019.5 0.0
26/03:30pm SE 15 20 - - - - - - - 19.8 1019.3 0.0
26/03:00pm SSE 17 20 - - - - - - - 20.1 1019.2 0.0
26/02:30pm SE 16 21 - - - - - - - 19.7 1019.2 0.0
26/02:00pm SSE 19 25 - - - - - - - 18.5 1018.8 0.0
26/01:30pm SSE 18 23 - - - - - - - 19.6 1018.8 0.0
26/01:00pm SSE 20 23 - - - - - - - 18.6 1018.6 0.0
26/12:30pm SSE 20 24 - - - - - - - 18.5 1018.5 0.0
26/12:00pm SSE 19 24 - - - - - - - 18.3 1018.3 0.0
26/11:30am S 22 26 - - - - - - - 17.9 1018.0 0.0
26/11:00am SSE 23 28 - - - - - - - 17.9 1017.7 0.0
26/10:30am S 24 28 - - - - - - - 18.0 1017.1 0.0
26/10:00am S 26 30 - - - - - - - 17.6 1016.7 0.0
26/09:30am S 25 29 - - - - - - - 17.2 1016.4 0.0
26/09:00am SSW 27 31 - - - - - - - 16.6 1015.5 0.0
26/08:30am SSW 27 32 - - - - - - - 16.0 1014.8 0.0
26/08:00am SSW 26 32 - - - - - - - 15.6 1014.3 0.0
26/07:30am SSW 23 25 - - - - - - - 15.3 1013.8 0.0
26/07:00am SSW 22 26 - - - - - - - 15.1 1013.2 0.0
26/06:48am SSW 15 23 - - - - - - - 14.1 1013.0 0.0
26/06:30am SW 9 13 - - - - - - - 13.2 1012.8 0.0
26/06:00am W 10 11 - - - - - - - 13.4 1012.1 0.0
26/05:30am WSW 10 13 - - - - - - - 13.6 1011.5 0.0
26/05:00am W 11 14 - - - - - - - 14.0 1011.0 0.0
26/04:30am W 12 16 - - - - - - - 14.4 1010.7 0.0
26/04:00am WNW 11 15 - - - - - - - 14.8 1010.4 0.0
26/03:30am WNW 11 15 - - - - - - - 15.0 1010.2 0.0
26/03:00am NW 14 17 - - - - - - - 15.1 1009.9 0.0
26/02:30am W 10 14 - - - - - - - 15.0 1010.6 0.0
26/02:00am WNW 9 11 - - - - - - - 14.8 1010.6 0.0
26/01:30am WNW 8 9 - - - - - - - 15.0 1010.4 0.0
26/01:00am WNW 9 12 - - - - - - - 15.8 1010.4 0.0
26/12:30am NW 7 9 - - - - - - - 16.0 1010.1 0.0
26/12:00am WNW 11 14 - - - - - - - 16.3 1010.4 0.0
 
Date/Time
EDT
Wind Sea
Height
m
Swell Vis
km
Cloud Weather Temp
°C
Press
MSL
hPa
Rain since
9am
mm
Dir  Spd
kts
Gust
kts
Height
m
Period
s
Dir
25/11:30pm WNW 13 16 - - - - - - - 16.6 1010.3 0.0
25/11:00pm WNW 12 15 - - - - - - - 16.6 1010.3 0.0
25/10:30pm WNW 8 11 - - - - - - - 16.5 1010.4 0.0
25/10:00pm WNW 13 17 - - - - - - - 17.2 1010.1 0.0
25/09:30pm WNW 15 21 - - - - - - - 17.5 1010.1 0.0
25/09:00pm WNW 15 20 - - - - - - - 17.7 1010.1 0.0
25/08:30pm NW 14 18 - - - - - - - 18.0 1009.5 0.0
25/08:00pm WNW 13 19 - - - - - - - 18.1 1009.5 0.0
25/07:30pm WNW 14 19 - - - - - - - 18.2 1009.4 0.0
25/07:00pm WNW 13 18 - - - - - - - 18.3 1009.3 0.0
25/06:57pm WNW 15 25 - - - - - - - 18.3 1009.3 0.0
25/06:30pm WNW 13 19 - - - - - - - 18.4 1009.2 0.0
25/06:00pm WNW 18 23 - - - - - - - 18.8 1009.5 0.0
25/05:30pm WNW 16 26 - - - - - - - 19.0 1009.9 0.0
25/05:00pm WNW 15 31 - - - - - - - 19.3 1009.5 0.0
25/04:52pm WNW 16 31 - - - - - - - 19.5 1009.7 0.0
25/04:30pm NW 22 31 - - - - - - - 19.8 1008.7 0.0
25/04:11pm NW 23 30 - - - - - - - 20.7 1008.7 0.0
25/04:00pm NNW 24 30 - - - - - - - 19.7 1008.8 0.0
25/03:30pm N 23 30 - - - - - - - 19.7 1009.0 0.0
25/03:00pm N 19 24 - - - - - - - 21.5 1009.6 0.0
25/02:30pm NW 15 23 - - - - - - - 24.5 1010.7 0.0
25/02:00pm NW 17 24 - - - - - - - 24.4 1011.7 0.0
25/01:30pm NW 17 28 - - - - - - - 23.6 1012.1 0.0
25/01:09pm NW 16 26 - - - - - - - 24.3 1012.3 0.0
25/01:00pm NW 16 23 - - - - - - - 22.2 1012.5 0.0
25/12:30pm NNW 17 23 - - - - - - - 20.5 1013.1 0.0
25/12:00pm NNW 18 22 - - - - - - - 19.9 1013.5 0.0
25/11:30am NW 19 25 - - - - - - - 20.9 1013.7 0.0
25/11:00am N 16 21 - - - - - - - 19.7 1013.9 0.0
25/10:30am N 15 19 - - - - - - - 19.7 1014.0 0.0
25/10:00am NNW 13 17 - - - - - - - 19.4 1014.4 0.0
25/09:30am NNW 11 14 - - - - - - - 18.9 1014.6 0.0
25/09:00am NNW 11 15 - - - - - - - 18.6 1014.7 0.0
25/08:30am NW 8 11 - - - - - - - 17.8 1014.9 0.0
25/08:00am NNW 8 11 - - - - - - - 16.9 1015.1 0.0
25/07:30am NW 9 12 - - - - - - - 16.4 1015.3 0.0
25/07:00am NW 10 12 - - - - - - - 15.1 1015.2 0.0
25/06:30am WNW 8 11 - - - - - - - 14.9 1015.5 0.0
25/06:00am NW 7 9 - - - - - - - 15.3 1015.5 0.0
25/05:30am N 15 19 - - - - - - - 17.6 1015.4 0.0
25/05:00am N 17 20 - - - - - - - 17.7 1015.3 0.0
25/04:30am N 16 19 - - - - - - - 17.5 1015.8 0.0
25/04:00am N 13 16 - - - - - - - 17.7 1016.0 0.0
25/03:30am N 12 15 - - - - - - - 17.2 1016.5 0.0
25/03:00am N 12 16 - - - - - - - 17.5 1017.3 0.0
25/02:30am N 13 16 - - - - - - - 17.2 1017.6 0.0
25/02:00am N 15 18 - - - - - - - 17.3 1018.6 0.0
25/01:30am N 16 20 - - - - - - - 17.6 1018.6 0.0
25/01:00am N 15 19 - - - - - - - 18.1 1018.7 0.0
25/12:30am NNE 15 19 - - - - - - - 17.7 1019.4 0.0
25/12:00am NNE 15 19 - - - - - - - 17.8 1019.9 0.0
 
Date/Time
EDT
Wind Sea
Height
m
Swell Vis
km
Cloud Weather Temp
°C
Press
MSL
hPa
Rain since
9am
mm
Dir  Spd
kts
Gust
kts
Height
m
Period
s
Dir
24/11:30pm NNE 15 19 - - - - - - - 17.7 1020.1 0.0
24/11:00pm NNE 12 16 - - - - - - - 17.8 1020.3 0.0
24/10:30pm NNE 12 14 - - - - - - - 17.8 1020.6 0.0
24/10:00pm NNE 11 13 - - - - - - - 17.7 1020.8 0.0
24/09:30pm NNE 10 12 - - - - - - - 17.7 1020.8 0.0
24/09:00pm NNE 11 13 - - - - - - - 17.6 1020.7 0.0
24/08:30pm NE 11 13 - - - - - - - 17.5 1020.3 0.0
24/08:00pm NE 11 13 - - - - - - - 17.4 1020.0 0.0
24/07:30pm NE 10 12 - - - - - - - 17.8 1019.9 0.0
24/07:00pm NE 10 11 - - - - - - - 18.0 1019.6 0.0
24/06:30pm NNE 9 11 - - - - - - - 18.4 1019.5 0.0
24/06:00pm NE 10 12 - - - - - - - 19.2 1019.3 0.0
24/05:30pm NE 9 11 - - - - - - - 20.0 1019.2 0.0
24/05:00pm NE 9 11 - - - - - - - 20.5 1019.1 0.0
24/04:30pm NE 9 11 - - - - - - - 21.2 1019.1 0.0
24/04:00pm ENE 9 11 - - - - - - - 22.1 1019.2 0.0
24/03:30pm ENE 9 11 - - - - - - - 22.0 1019.2 0.0
24/03:00pm ENE 7 10 - - - - - - - 22.1 1019.4 0.0
24/02:30pm E 8 11 - - - - - - - 21.7 1019.6 0.0
24/02:00pm E 9 11 - - - - - - - 22.1 1019.4 0.0
24/01:30pm E 7 9 - - - - - - - 21.7 1019.4 0.0
24/01:00pm ESE 9 11 - - - - - - - 21.3 1019.3 0.0
24/12:30pm SE 9 13 - - - - - - - 22.0 1019.3 0.0
24/12:00pm SE 9 12 - - - - - - - 21.2 1019.3 0.0
24/11:30am SE 11 15 - - - - - - - 21.1 1019.1 0.0
24/11:00am SSE 13 16 - - - - - - - 19.4 1018.9 0.0
24/10:30am SSE 16 18 - - - - - - - 18.7 1018.7 0.0
24/10:00am S 16 20 - - - - - - - 19.0 1018.4 0.0
24/09:30am S 16 21 - - - - - - - 18.3 1018.0 0.0
24/09:00am SSE 17 21 - - - - - - - 17.7 1017.6 0.0
24/08:30am S 16 19 - - - - - - - 17.2 1017.1 0.0
24/08:00am S 17 21 - - - - - - - 16.6 1016.6 0.0
24/07:30am SSW 16 18 - - - - - - - 15.3 1016.3 0.0
24/07:00am SSW 16 19 - - - - - - - 14.3 1015.7 0.0
24/06:30am SSW 17 21 - - - - - - - 14.2 1015.2 0.0
24/06:00am SSW 15 23 - - - - - - - 14.3 1014.6 0.0
24/05:56am SSW 15 23 - - - - - - - 14.2 1014.6 0.0
24/05:30am SW 10 13 - - - - - - - 13.0 1014.2 0.0
24/05:00am SW 9 11 - - - - - - - 12.1 1013.8 0.0
24/04:30am WSW 7 8 - - - - - - - 12.3 1013.6 0.0
24/04:00am SW 7 7 - - - - - - - 12.5 1013.3 0.0
24/03:30am WSW 7 7 - - - - - - - 12.2 1013.1 0.0
24/03:00am WSW 7 7 - - - - - - - 12.3 1012.6 0.0
24/02:30am W 7 8 - - - - - - - 11.8 1012.3 0.0
24/02:00am WSW 7 9 - - - - - - - 12.4 1012.0 0.0
24/01:30am WSW 9 11 - - - - - - - 12.8 1011.8 0.0
24/01:00am W 11 15 - - - - - - - 13.7 1011.4 0.0
24/12:30am W 13 17 - - - - - - - 14.1 1011.1 0.0
24/12:00am W 15 19 - - - - - - - 14.6 1010.6 0.0
 
Date/Time
EDT
Wind Sea
Height
m
Swell Vis
km
Cloud Weather Temp
°C
Press
MSL
hPa
Rain since
9am
mm
Dir  Spd
kts
Gust
kts
Height
m
Period
s
Dir
23/11:30pm WSW 14 18 - - - - - - - 15.0 1010.2 0.0
23/11:00pm WSW 13 18 - - - - - - - 15.2 1009.8 0.0
23/10:30pm W 11 16 - - - - - - - 15.3 1009.5 0.0
23/10:00pm W 12 17 - - - - - - - 15.8 1009.1 0.0

Other formats

Comma delimited format used in spreadsheet applications
http://www.bom.gov.au/fwo/IDT60701/IDT60701.94983.axf

JavaScript Object Notation format (JSON) in row-major order
http://www.bom.gov.au/fwo/IDT60701/IDT60701.94983.json

Data quality

Most of these data are generated automatically and are frequently updated. Quality checks on data are not normally performed. It is possible for incorrect values to appear. Refer to information at About Latest Weather Observations and please check the disclaimer before using these data.